Time;durP1;ratioP1;P1;durP2;ratioP2;P2;SDS_P1;SDS_P2;PMS_P1;PMS_P2;Temp;Humidity;BMP_temperature;BMP_pressure;BME280_temperature;BME280_humidity;BME280_pressure;Samples;Min_cycle;Max_cycle;Signal;HPM_P1;HPM_P2
2022/04/19 00:01:10;;;;;;;2.88;2.00;;;10.80;32.50;;;;;;5070056;28;20168;-32
2022/04/19 00:03:36;;;;;;;2.97;1.55;;;10.90;32.50;;;;;;5063449;28;20201;-33
2022/04/19 00:06:01;;;;;;;4.17;1.67;;;10.90;32.70;;;;;;5072171;28;20200;-33
2022/04/19 00:08:27;;;;;;;5.40;2.40;;;10.90;32.70;;;;;;5071953;28;20180;-33
2022/04/19 00:10:53;;;;;;;5.73;2.47;;;10.90;32.50;;;;;;5071742;28;20197;-32
2022/04/19 00:13:18;;;;;;;2.43;1.40;;;10.90;32.40;;;;;;5071719;28;20211;-32
2022/04/19 00:15:45;;;;;;;8.30;2.13;;;10.90;33.40;;;;;;5071878;28;20169;-32
2022/04/19 00:18:11;;;;;;;2.80;1.35;;;10.80;33.90;;;;;;5071878;28;20255;-33
2022/04/19 00:20:42;;;;;;;3.28;2.00;;;10.80;32.70;;;;;;5071902;28;20754;-33
2022/04/19 00:23:15;;;;;;;2.65;2.25;;;10.70;32.70;;;;;;5071668;28;20604;-33
2022/04/19 00:25:43;;;;;;;4.93;1.95;;;10.70;33.50;;;;;;5071686;28;20177;-32
2022/04/19 00:28:10;;;;;;;3.00;2.47;;;10.70;33.00;;;;;;5071806;28;20163;-32
2022/04/19 00:30:36;;;;;;;1.88;1.25;;;10.70;32.90;;;;;;5071534;28;20168;-32
2022/04/19 00:33:02;;;;;;;4.10;1.30;;;10.70;32.80;;;;;;5071912;28;20242;-32
2022/04/19 00:35:28;;;;;;;2.67;1.60;;;10.70;32.60;;;;;;5071639;28;20415;-32
2022/04/19 00:37:54;;;;;;;14.83;3.13;;;10.80;32.50;;;;;;5071616;28;20173;-32
2022/04/19 00:40:20;;;;;;;7.20;3.30;;;10.80;32.50;;;;;;5071400;28;20176;-33
2022/04/19 00:42:47;;;;;;;7.93;2.40;;;10.80;32.90;;;;;;5071395;28;20176;-33
2022/04/19 00:45:13;;;;;;;5.63;2.30;;;10.70;32.80;;;;;;5071564;28;20161;-33
2022/04/19 00:47:39;;;;;;;5.43;2.25;;;10.70;32.50;;;;;;5071468;28;20344;-32
2022/04/19 00:50:06;;;;;;;2.55;1.63;;;10.70;32.70;;;;;;5071560;28;20172;-32
2022/04/19 00:52:35;;;;;;;2.20;1.50;;;10.70;32.40;;;;;;5074172;28;20175;-32
2022/04/19 00:55:01;;;;;;;3.05;2.05;;;10.70;32.60;;;;;;5075140;28;20184;-32
2022/04/19 00:57:28;;;;;;;3.10;1.63;;;10.60;32.50;;;;;;5075246;28;20606;-32
2022/04/19 00:59:55;;;;;;;2.25;1.42;;;10.60;32.70;;;;;;5075216;28;20176;-32
2022/04/19 01:02:22;;;;;;;1.73;1.40;;;10.60;32.70;;;;;;5074779;28;20180;-32
2022/04/19 01:04:49;;;;;;;2.50;1.52;;;10.60;32.50;;;;;;5070238;28;20211;-32
2022/04/19 01:07:18;;;;;;;4.82;2.42;;;10.60;32.70;;;;;;5066495;28;20205;-32
2022/04/19 01:09:45;;;;;;;2.85;2.00;;;10.60;33.70;;;;;;5074977;28;20657;-32
2022/04/19 01:14:57;;;;;;;3.80;2.10;;;10.60;32.90;;;;;;5087843;28;20235;-30
2022/04/19 01:17:25;;;;;;;2.67;2.05;;;10.70;32.90;;;;;;5075089;28;20180;-30
2022/04/19 01:19:51;;;;;;;3.20;1.50;;;10.70;33.00;;;;;;5075050;28;20229;-30
2022/04/19 01:22:16;;;;;;;2.30;1.70;;;10.60;33.20;;;;;;5063385;28;20197;-30
2022/04/19 01:24:43;;;;;;;2.57;1.57;;;10.70;34.00;;;;;;5055234;28;20177;-30
2022/04/19 01:27:09;;;;;;;2.67;1.60;;;10.60;33.80;;;;;;5054653;28;20675;-30
2022/04/19 01:29:36;;;;;;;6.53;2.22;;;10.70;33.50;;;;;;5054681;28;20204;-30
2022/04/19 01:32:05;;;;;;;2.20;1.80;;;10.70;33.90;;;;;;5054557;28;20193;-30
2022/04/19 01:34:31;;;;;;;3.25;1.73;;;10.60;34.10;;;;;;5054606;28;20575;-30
2022/04/19 01:36:57;;;;;;;2.90;1.80;;;10.70;33.90;;;;;;5054704;28;20173;-30
2022/04/19 01:42:08;;;;;;;4.55;2.20;;;10.70;34.30;;;;;;5054108;28;20623;-30
2022/04/19 01:44:34;;;;;;;3.08;1.80;;;10.70;34.10;;;;;;5054317;28;20185;-30
2022/04/19 01:47:01;;;;;;;2.60;1.70;;;10.70;34.00;;;;;;5054301;28;20204;-30
2022/04/19 01:49:27;;;;;;;2.55;1.90;;;10.70;33.50;;;;;;5054531;28;20400;-30
2022/04/19 01:51:53;;;;;;;2.72;2.20;;;10.70;33.50;;;;;;5054007;28;20223;-30
2022/04/19 01:54:18;;;;;;;2.50;1.93;;;10.70;33.80;;;;;;5054258;28;20191;-30
2022/04/19 01:56:44;;;;;;;3.17;2.33;;;10.80;33.90;;;;;;5054423;28;20176;-30
2022/04/19 01:59:11;;;;;;;4.03;2.23;;;10.80;33.90;;;;;;5054338;28;20185;-30
2022/04/19 02:01:37;;;;;;;3.47;1.83;;;10.80;34.00;;;;;;5053714;28;20190;-30
2022/04/19 02:04:03;;;;;;;2.28;1.30;;;10.80;34.40;;;;;;5054170;28;20263;-30
2022/04/19 02:06:30;;;;;;;2.67;1.97;;;10.80;34.60;;;;;;5054211;28;20418;-30
2022/04/19 02:08:56;;;;;;;3.08;1.70;;;10.80;34.40;;;;;;5053901;28;20491;-30
2022/04/19 02:11:24;;;;;;;3.40;2.10;;;10.80;34.70;;;;;;5053706;28;20212;-30
2022/04/19 02:13:51;;;;;;;6.45;2.50;;;10.70;34.40;;;;;;5053891;28;20166;-30
2022/04/19 02:16:17;;;;;;;2.45;1.30;;;10.70;34.60;;;;;;5054092;28;20181;-30
2022/04/19 02:18:43;;;;;;;1.77;1.42;;;10.80;34.40;;;;;;5053705;28;20660;-30
2022/04/19 02:21:09;;;;;;;3.22;2.08;;;10.80;34.30;;;;;;5053432;28;20296;-30
2022/04/19 02:23:35;;;;;;;2.80;2.30;;;10.80;34.30;;;;;;5054006;28;20662;-30
2022/04/19 02:26:02;;;;;;;2.10;1.15;;;10.80;35.00;;;;;;5053465;28;20197;-30
2022/04/19 02:28:28;;;;;;;6.40;2.42;;;10.90;34.40;;;;;;5053803;28;20178;-30
2022/04/19 02:30:55;;;;;;;3.03;2.30;;;10.90;34.30;;;;;;5053604;28;20176;-30
2022/04/19 02:33:21;;;;;;;2.65;1.80;;;10.90;34.30;;;;;;5053530;28;20764;-30
2022/04/19 02:35:46;;;;;;;2.37;1.60;;;11.00;34.00;;;;;;5053372;28;20252;-30
2022/04/19 02:38:12;;;;;;;2.13;1.80;;;10.90;33.90;;;;;;5053361;28;20165;-30
2022/04/19 02:40:38;;;;;;;3.05;2.10;;;10.90;34.50;;;;;;5052973;28;20169;-38
2022/04/19 02:43:04;;;;;;;2.57;1.90;;;11.00;34.10;;;;;;5053338;28;20204;-30
2022/04/19 02:45:30;;;;;;;2.80;1.67;;;11.00;34.00;;;;;;5053260;28;20597;-30
2022/04/19 02:48:06;;;;;;;2.60;2.10;;;11.00;34.10;;;;;;5053096;28;20462;-30
2022/04/19 02:50:34;;;;;;;2.25;1.50;;;11.00;34.60;;;;;;5052987;28;20264;-30
2022/04/19 02:53:01;;;;;;;3.53;1.48;;;11.00;34.30;;;;;;5053010;28;20198;-30
2022/04/19 02:55:27;;;;;;;2.28;2.08;;;11.00;34.40;;;;;;5053003;28;20169;-30
2022/04/19 02:57:53;;;;;;;2.78;1.75;;;11.00;34.40;;;;;;5053187;28;20219;-30
2022/04/19 03:00:20;;;;;;;5.50;2.40;;;11.00;34.90;;;;;;5053098;28;20227;-30
2022/04/19 03:02:46;;;;;;;2.65;1.92;;;10.90;34.60;;;;;;5052637;28;20201;-30
2022/04/19 03:05:13;;;;;;;3.55;2.03;;;10.90;34.30;;;;;;5052861;28;20654;-30
2022/04/19 03:07:39;;;;;;;3.15;2.75;;;10.90;34.20;;;;;;5052643;28;20564;-30
2022/04/19 03:10:06;;;;;;;4.30;2.17;;;10.90;34.30;;;;;;5053014;28;20178;-30
2022/04/19 03:12:32;;;;;;;4.38;1.70;;;10.90;34.30;;;;;;5052273;28;21040;-30
2022/04/19 03:14:57;;;;;;;2.43;1.67;;;10.90;34.60;;;;;;5052026;28;20223;-30
2022/04/19 03:17:23;;;;;;;3.10;2.03;;;10.90;34.50;;;;;;5052842;28;20450;-30
2022/04/19 03:19:49;;;;;;;4.40;2.13;;;10.90;34.60;;;;;;5052888;28;20196;-30
2022/04/19 03:22:15;;;;;;;2.37;1.87;;;10.80;35.70;;;;;;5052209;28;20438;-30
2022/04/19 03:27:42;;;;;;;2.78;2.47;;;10.80;35.40;;;;;;5052465;28;20195;-30
2022/04/19 03:30:15;;;;;;;2.30;1.98;;;10.70;34.90;;;;;;5058770;28;20402;-30
2022/04/19 03:32:42;;;;;;;4.45;1.92;;;10.70;34.70;;;;;;5071939;28;20550;-30
2022/04/19 03:35:08;;;;;;;4.90;2.97;;;10.80;34.60;;;;;;5071627;28;20653;-30
2022/04/19 03:37:34;;;;;;;4.38;1.67;;;10.80;34.60;;;;;;5072125;28;20177;-30
2022/04/19 03:40:00;;;;;;;4.50;2.10;;;10.80;34.40;;;;;;5072175;28;20176;-30
2022/04/19 03:42:26;;;;;;;5.33;2.37;;;10.80;34.80;;;;;;5071965;28;20199;-30
2022/04/19 03:44:52;;;;;;;4.55;1.90;;;10.80;34.40;;;;;;5072163;28;20667;-30
2022/04/19 03:47:18;;;;;;;4.30;2.40;;;10.90;34.20;;;;;;5072244;28;20200;-30
2022/04/19 03:49:43;;;;;;;3.30;2.53;;;10.90;34.10;;;;;;5072323;28;20495;-30
2022/04/19 03:52:10;;;;;;;4.53;2.90;;;10.90;34.10;;;;;;5071969;28;20210;-30
2022/04/19 03:54:37;;;;;;;2.78;1.83;;;10.90;34.00;;;;;;5072298;28;20185;-30
2022/04/19 03:57:04;;;;;;;4.88;1.95;;;10.90;33.90;;;;;;5072240;28;20562;-30
2022/04/19 03:59:31;;;;;;;5.07;2.92;;;10.90;33.90;;;;;;5072007;28;20631;-30
2022/04/19 04:01:58;;;;;;;2.75;2.17;;;10.90;33.90;;;;;;5071761;28;20235;-30
2022/04/19 04:04:30;;;;;;;3.50;2.78;;;10.90;33.70;;;;;;5072165;28;20203;-30
2022/04/19 04:06:59;;;;;;;3.25;1.83;;;10.90;33.70;;;;;;5072105;28;20224;-30
2022/04/19 04:09:26;;;;;;;3.40;2.33;;;10.90;33.50;;;;;;5071914;28;20192;-30
2022/04/19 04:11:52;;;;;;;5.47;2.60;;;11.00;33.60;;;;;;5071411;28;20200;-30
2022/04/19 04:14:26;;;;;;;5.90;3.08;;;11.00;33.60;;;;;;5071806;28;20183;-30
2022/04/19 04:16:52;;;;;;;4.05;2.95;;;11.00;33.50;;;;;;5071695;28;20179;-30
2022/04/19 04:19:18;;;;;;;2.50;1.50;;;11.00;33.40;;;;;;5071905;28;20491;-30
2022/04/19 04:21:44;;;;;;;4.82;2.65;;;11.00;33.50;;;;;;5071479;28;20531;-30
2022/04/19 04:24:09;;;;;;;2.03;1.83;;;11.00;33.40;;;;;;5071838;28;20202;-30
2022/04/19 04:26:35;;;;;;;4.13;2.80;;;11.00;33.30;;;;;;5074815;28;20662;-30
2022/04/19 04:29:00;;;;;;;2.87;2.10;;;11.10;33.40;;;;;;5075687;28;20242;-30
2022/04/19 04:31:26;;;;;;;3.33;2.23;;;11.10;33.20;;;;;;5075528;28;20200;-30
2022/04/19 04:33:52;;;;;;;2.93;2.13;;;11.10;33.30;;;;;;5075678;28;20649;-30
2022/04/19 04:36:19;;;;;;;5.10;2.23;;;11.10;33.20;;;;;;5075611;28;20210;-30
2022/04/19 04:38:45;;;;;;;4.78;2.15;;;11.10;33.30;;;;;;5075392;28;20195;-30
2022/04/19 04:41:11;;;;;;;3.35;1.98;;;11.10;33.20;;;;;;5075324;28;20176;-30
2022/04/19 04:43:38;;;;;;;2.53;1.70;;;11.10;33.30;;;;;;5075581;28;20222;-30
2022/04/19 04:51:32;;;;;;;4.40;3.60;;;11.10;33.20;;;;;;5075133;28;20238;-30
2022/04/19 04:53:58;;;;;;;3.57;2.77;;;11.20;33.30;;;;;;5075362;28;20568;-30
2022/04/19 04:56:23;;;;;;;3.50;2.47;;;11.20;33.20;;;;;;5075503;28;20180;-30
2022/04/19 04:58:50;;;;;;;4.57;2.63;;;11.20;33.20;;;;;;5075118;28;20252;-30
2022/04/19 05:01:15;;;;;;;5.22;2.65;;;11.20;33.20;;;;;;5074684;28;20604;-30
2022/04/19 05:03:41;;;;;;;2.80;2.30;;;11.30;33.40;;;;;;5075385;28;20271;-32
2022/04/19 05:06:07;;;;;;;4.10;3.30;;;11.30;33.30;;;;;;5075230;28;20193;-32
2022/04/19 05:08:32;;;;;;;3.40;2.50;;;11.30;33.30;;;;;;5075004;28;20172;-31
2022/04/19 05:10:58;;;;;;;3.60;2.07;;;11.30;33.30;;;;;;5074843;28;20168;-32
2022/04/19 05:13:25;;;;;;;4.10;2.43;;;11.30;33.20;;;;;;5074806;28;20610;-31
2022/04/19 05:15:51;;;;;;;3.10;2.60;;;11.30;33.10;;;;;;5074883;28;20169;-31
2022/04/19 05:18:16;;;;;;;8.13;2.77;;;11.40;33.30;;;;;;5075068;28;20301;-32
2022/04/19 05:20:42;;;;;;;5.60;1.80;;;11.40;33.20;;;;;;5075346;28;20406;-31
2022/04/19 05:23:09;;;;;;;5.35;3.15;;;11.40;33.40;;;;;;5074492;28;20199;-31
2022/04/19 05:25:35;;;;;;;2.75;2.50;;;11.40;33.30;;;;;;5074877;28;20181;-31
2022/04/19 05:28:00;;;;;;;4.23;1.77;;;11.40;33.20;;;;;;5074805;28;20200;-31
2022/04/19 05:30:26;;;;;;;4.40;1.80;;;11.50;33.20;;;;;;5074645;28;20840;-32
2022/04/19 05:32:52;;;;;;;4.33;2.90;;;11.50;33.30;;;;;;5074574;28;20196;-32
2022/04/19 05:35:18;;;;;;;3.10;2.20;;;11.60;33.10;;;;;;5074711;28;20403;-32
2022/04/19 05:37:45;;;;;;;2.88;1.88;;;11.60;33.20;;;;;;5072489;28;20457;-32
2022/04/19 05:40:11;;;;;;;4.70;3.10;;;11.60;33.10;;;;;;5074541;28;20237;-31
2022/04/19 05:42:37;;;;;;;2.73;2.20;;;11.70;33.20;;;;;;5074381;28;20201;-31
2022/04/19 05:45:03;;;;;;;4.87;3.30;;;11.70;33.20;;;;;;5074502;28;20638;-31
2022/04/19 05:47:29;;;;;;;3.50;2.35;;;11.70;33.40;;;;;;5074300;28;20200;-32
2022/04/19 05:49:54;;;;;;;6.27;3.17;;;11.80;33.00;;;;;;5073759;28;20741;-32
2022/04/19 05:52:20;;;;;;;2.57;1.90;;;11.80;32.80;;;;;;5073736;28;20430;-32
2022/04/19 05:54:46;;;;;;;5.13;2.17;;;11.80;32.70;;;;;;5074359;28;20199;-32
2022/04/19 05:57:11;;;;;;;4.83;3.27;;;11.90;32.90;;;;;;5074378;28;20363;-32
2022/04/19 05:59:37;;;;;;;5.20;2.50;;;11.80;32.90;;;;;;5074157;28;20288;-32
2022/04/19 06:04:54;;;;;;;3.15;2.20;;;11.80;32.90;;;;;;5074197;28;20187;-32
2022/04/19 06:07:20;;;;;;;3.25;2.20;;;11.80;32.90;;;;;;5073872;28;20687;-32
2022/04/19 06:09:46;;;;;;;8.15;2.20;;;11.80;32.70;;;;;;5073876;28;20306;-32
2022/04/19 06:12:12;;;;;;;3.90;1.77;;;11.90;33.00;;;;;;5073445;28;20294;-32
2022/04/19 06:14:38;;;;;;;2.80;2.40;;;11.90;32.80;;;;;;5073982;28;20900;-32
2022/04/19 06:17:04;;;;;;;4.80;2.50;;;12.10;32.90;;;;;;5074046;28;20894;-32
2022/04/19 06:19:30;;;;;;;3.10;1.75;;;12.20;32.70;;;;;;5073562;28;20553;-32
2022/04/19 06:21:57;;;;;;;4.50;2.13;;;12.20;32.50;;;;;;5073561;28;20228;-32
2022/04/19 06:24:23;;;;;;;5.68;2.83;;;12.30;33.20;;;;;;5073769;28;20184;-32
2022/04/19 06:26:49;;;;;;;3.17;1.90;;;12.30;32.50;;;;;;5073715;28;20204;-32
2022/04/19 06:29:15;;;;;;;3.20;2.57;;;12.40;32.50;;;;;;5073508;28;20168;-31
2022/04/19 06:31:41;;;;;;;4.50;2.47;;;12.40;32.60;;;;;;5073445;28;20454;-32
2022/04/19 06:34:07;;;;;;;3.15;2.10;;;12.40;32.60;;;;;;5073560;28;20456;-32
2022/04/19 06:36:33;;;;;;;4.22;1.88;;;12.50;32.50;;;;;;5073355;28;20321;-32
2022/04/19 06:38:59;;;;;;;3.92;2.83;;;12.60;32.40;;;;;;5073490;28;20177;-32
2022/04/19 06:41:25;;;;;;;4.33;3.40;;;12.60;32.60;;;;;;5073132;28;20697;-32
2022/04/19 06:43:51;;;;;;;6.60;2.90;;;12.70;32.70;;;;;;5073403;28;20411;-32
2022/04/19 06:46:18;;;;;;;2.93;2.10;;;12.70;32.50;;;;;;5073131;28;20192;-32
2022/04/19 06:48:43;;;;;;;2.67;2.15;;;12.70;32.30;;;;;;5072318;28;20255;-31
2022/04/19 06:51:09;;;;;;;4.27;2.63;;;13.70;32.80;;;;;;5072969;28;20264;-31
2022/04/19 06:53:37;;;;;;;4.27;2.83;;;12.80;32.30;;;;;;5073087;28;20176;-32
2022/04/19 06:56:04;;;;;;;2.83;2.17;;;12.90;32.40;;;;;;5071452;28;20176;-31
2022/04/19 06:58:33;;;;;;;6.85;3.00;;;13.10;32.40;;;;;;5072845;28;20180;-32
2022/04/19 07:00:58;;;;;;;3.50;2.65;;;13.10;32.40;;;;;;5072711;28;20177;-32
2022/04/19 07:03:24;;;;;;;6.00;3.30;;;13.20;31.90;;;;;;5073182;28;20219;-32
2022/04/19 07:05:50;;;;;;;3.93;3.10;;;13.30;32.00;;;;;;5072888;28;20653;-32
2022/04/19 07:08:16;;;;;;;3.13;2.83;;;13.40;32.00;;;;;;5072710;28;20164;-32
2022/04/19 07:10:42;;;;;;;5.63;3.17;;;13.50;32.10;;;;;;5072639;28;20173;-32
2022/04/19 07:13:09;;;;;;;2.80;2.40;;;13.60;31.90;;;;;;5072537;28;20434;-31
2022/04/19 07:15:35;;;;;;;4.50;2.53;;;13.70;31.80;;;;;;5072589;28;20399;-30
2022/04/19 07:18:01;;;;;;;4.97;3.60;;;13.80;31.60;;;;;;5072538;28;20179;-30
2022/04/19 07:28:39;;;;;;;4.03;2.33;;;14.30;31.00;;;;;;5072418;28;20274;-31
2022/04/19 07:31:05;;;;;;;2.80;2.20;;;14.50;30.60;;;;;;5072100;28;20265;-30
2022/04/19 07:33:34;;;;;;;6.43;2.47;;;14.60;30.00;;;;;;5072260;28;20177;-30
2022/04/19 07:36:00;;;;;;;5.50;2.05;;;14.70;30.40;;;;;;5072269;28;20173;-31
2022/04/19 07:38:25;;;;;;;3.87;2.90;;;14.80;30.00;;;;;;5072498;28;20196;-30
2022/04/19 07:40:51;;;;;;;4.90;2.20;;;14.90;29.80;;;;;;5071980;28;20233;-31
2022/04/19 07:43:17;;;;;;;4.20;3.07;;;14.90;29.40;;;;;;5071964;28;20188;-31
2022/04/19 07:45:42;;;;;;;6.07;3.20;;;15.00;29.60;;;;;;5072401;28;20208;-31
2022/04/19 07:48:08;;;;;;;4.03;2.93;;;15.10;29.50;;;;;;5072063;28;20593;-30
2022/04/19 07:50:34;;;;;;;3.60;2.30;;;15.20;29.00;;;;;;5071794;28;20239;-30
2022/04/19 07:53:00;;;;;;;4.37;2.50;;;15.40;29.50;;;;;;5071273;28;20216;-30
2022/04/19 07:55:27;;;;;;;3.00;2.80;;;15.60;29.30;;;;;;5071271;28;20169;-31
2022/04/19 07:57:53;;;;;;;3.90;2.78;;;15.80;29.20;;;;;;5072087;28;20184;-31
2022/04/19 08:00:20;;;;;;;5.43;3.17;;;16.00;29.00;;;;;;5071792;28;20172;-30
2022/04/19 08:02:46;;;;;;;3.97;3.00;;;16.20;27.80;;;;;;5071839;28;20197;-31
2022/04/19 08:05:12;;;;;;;4.78;2.78;;;16.40;28.00;;;;;;5071885;28;20173;-31
2022/04/19 08:07:38;;;;;;;8.83;3.10;;;16.50;27.40;;;;;;5071699;28;20231;-31
2022/04/19 08:10:05;;;;;;;6.73;2.73;;;16.70;26.10;;;;;;5071716;28;20271;-31
2022/04/19 08:12:31;;;;;;;4.45;2.80;;;16.80;26.00;;;;;;5071497;28;20647;-31
2022/04/19 08:14:57;;;;;;;6.05;2.38;;;16.90;26.50;;;;;;5072051;28;20173;-32
2022/04/19 08:17:23;;;;;;;4.15;2.30;;;17.10;26.60;;;;;;5072020;28;20215;-31
2022/04/19 08:19:49;;;;;;;5.73;2.50;;;17.30;26.80;;;;;;5072040;28;20175;-31
2022/04/19 08:22:16;;;;;;;6.50;3.10;;;17.50;26.60;;;;;;5071505;28;20200;-31
2022/04/19 08:24:42;;;;;;;4.50;3.05;;;17.70;26.90;;;;;;5071888;28;20181;-31
2022/04/19 08:27:08;;;;;;;5.18;2.20;;;17.80;26.20;;;;;;5071412;28;20688;-31
2022/04/19 08:29:34;;;;;;;7.80;2.77;;;18.00;24.80;;;;;;5071836;28;20178;-31
2022/04/19 08:31:59;;;;;;;4.30;3.13;;;18.00;24.50;;;;;;5071366;28;20212;-31
2022/04/19 08:34:25;;;;;;;4.37;3.00;;;18.10;24.70;;;;;;5071578;28;20411;-31
2022/04/19 08:36:51;;;;;;;4.03;2.50;;;18.10;24.50;;;;;;5071473;28;20261;-31
2022/04/19 08:39:16;;;;;;;4.20;2.93;;;18.20;24.80;;;;;;5069955;28;20920;-31
2022/04/19 08:41:43;;;;;;;3.57;2.70;;;18.20;23.00;;;;;;5071235;28;20248;-31
2022/04/19 08:44:11;;;;;;;4.55;2.63;;;18.30;22.90;;;;;;5071559;28;20184;-31
2022/04/19 08:46:40;;;;;;;4.72;2.65;;;18.40;22.80;;;;;;5071343;28;20207;-31
2022/04/19 08:49:06;;;;;;;2.67;2.25;;;18.50;23.50;;;;;;5071455;28;20188;-31
2022/04/19 08:51:36;;;;;;;4.83;2.67;;;18.60;22.80;;;;;;5071311;28;20192;-31
2022/04/19 08:59:31;;;;;;;5.22;3.63;;;18.60;22.20;;;;;;5071665;28;20180;-31
2022/04/19 09:01:59;;;;;;;3.15;1.88;;;18.70;22.40;;;;;;5071086;28;20196;-31
2022/04/19 09:04:25;;;;;;;3.03;1.80;;;18.80;21.60;;;;;;5071550;28;20204;-31
2022/04/19 09:06:58;;;;;;;2.72;2.00;;;18.90;22.00;;;;;;5071167;28;20712;-31
2022/04/19 09:09:29;;;;;;;7.57;2.85;;;19.10;22.30;;;;;;5071301;28;20645;-31
2022/04/19 09:12:07;;;;;;;5.93;2.40;;;19.20;21.20;;;;;;5070868;28;20262;-31
2022/04/19 09:14:33;;;;;;;6.00;2.00;;;19.30;21.00;;;;;;5067758;28;20173;-31
2022/04/19 09:17:04;;;;;;;3.40;2.00;;;19.40;21.50;;;;;;5075070;28;20176;-31
2022/04/19 09:19:30;;;;;;;4.80;1.92;;;19.50;20.50;;;;;;5074612;28;20195;-31
2022/04/19 09:21:57;;;;;;;4.33;2.30;;;19.60;21.00;;;;;;5074310;28;20666;-31
2022/04/19 09:24:23;;;;;;;3.75;2.80;;;19.80;20.80;;;;;;5074939;28;20185;-31
2022/04/19 09:26:49;;;;;;;4.20;2.15;;;19.90;21.70;;;;;;5074934;28;20193;-31
2022/04/19 09:29:22;;;;;;;3.30;2.03;;;19.90;20.00;;;;;;5075283;28;20200;-31
2022/04/19 09:31:51;;;;;;;3.70;2.63;;;20.00;19.00;;;;;;5074203;28;20947;-31
2022/04/19 09:34:34;;;;;;;4.40;2.60;;;20.00;19.10;;;;;;5074805;28;20538;-31
2022/04/19 09:37:07;;;;;;;5.65;1.77;;;20.00;19.70;;;;;;5074757;28;20181;-31
2022/04/19 09:39:37;;;;;;;2.55;2.22;;;20.10;19.40;;;;;;5074245;28;20176;-31
2022/04/19 09:42:08;;;;;;;3.55;2.13;;;20.20;18.80;;;;;;5074313;28;20200;-31
2022/04/19 09:44:42;;;;;;;5.25;2.13;;;20.20;17.90;;;;;;5074458;28;20321;-31
2022/04/19 09:47:12;;;;;;;2.17;1.63;;;20.00;17.50;;;;;;5074292;28;20200;-31
2022/04/19 09:49:48;;;;;;;2.60;1.73;;;19.90;19.00;;;;;;5074531;28;20560;-31
2022/04/19 09:52:23;;;;;;;3.13;2.00;;;19.80;18.40;;;;;;5074104;28;20192;-31
2022/04/19 09:55:06;;;;;;;3.40;1.90;;;19.90;18.50;;;;;;5074185;28;20178;-31
2022/04/19 09:57:36;;;;;;;2.85;1.98;;;20.00;18.70;;;;;;5074198;28;20180;-31
2022/04/19 10:00:05;;;;;;;4.75;2.30;;;20.20;19.10;;;;;;5074064;28;20204;-31
2022/04/19 10:08:11;;;;;;;2.28;1.40;;;20.50;18.50;;;;;;5073817;28;20203;-31
2022/04/19 10:10:37;;;;;;;3.53;2.30;;;20.40;17.80;;;;;;5055575;28;20251;-31
2022/04/19 10:13:04;;;;;;;2.47;1.50;;;20.40;17.50;;;;;;5073611;28;20204;-31
2022/04/19 10:15:37;;;;;;;2.90;1.75;;;20.40;17.70;;;;;;5073621;28;20251;-31
2022/04/19 10:18:06;;;;;;;3.40;2.22;;;20.50;17.80;;;;;;5073733;28;20710;-31
2022/04/19 10:20:36;;;;;;;2.85;1.55;;;20.60;17.40;;;;;;5073506;28;20199;-31
2022/04/19 10:23:08;;;;;;;2.70;1.73;;;20.70;17.20;;;;;;5073149;28;20196;-31
2022/04/19 10:25:44;;;;;;;7.18;2.20;;;20.80;17.60;;;;;;5073510;28;20642;-31
2022/04/19 10:28:26;;;;;;;2.70;1.60;;;20.90;18.30;;;;;;5073730;28;20294;-31
2022/04/19 10:30:53;;;;;;;5.20;1.75;;;21.00;17.80;;;;;;5073443;28;20164;-31
2022/04/19 10:33:44;;;;;;;3.00;1.75;;;21.10;17.30;;;;;;5073407;28;20294;-31
2022/04/19 10:36:18;;;;;;;1.60;1.10;;;21.10;17.20;;;;;;5073232;28;20172;-31
2022/04/19 10:38:46;;;;;;;2.30;1.33;;;21.20;17.70;;;;;;5073375;28;20172;-31
2022/04/19 10:41:55;;;;;;;2.38;1.58;;;21.20;17.30;;;;;;5073124;28;20265;-31
2022/04/19 10:44:25;;;;;;;2.05;1.33;;;21.20;16.90;;;;;;5073110;28;20168;-31
2022/04/19 10:47:11;;;;;;;3.20;2.03;;;21.20;16.20;;;;;;5073137;28;20261;-31
2022/04/19 10:49:59;;;;;;;2.33;1.27;;;21.00;16.20;;;;;;5073161;28;20180;-31
2022/04/19 10:52:37;;;;;;;2.53;1.58;;;20.70;17.30;;;;;;5072568;28;20192;-31
2022/04/19 10:55:10;;;;;;;1.92;1.20;;;20.50;17.70;;;;;;5073163;28;20187;-31
2022/04/19 11:00:48;;;;;;;2.88;1.40;;;20.40;17.70;;;;;;5073002;28;20188;-31
2022/04/19 11:03:18;;;;;;;2.15;1.52;;;20.20;17.10;;;;;;5072177;28;20204;-31
2022/04/19 11:05:52;;;;;;;1.83;1.30;;;20.20;17.60;;;;;;5072755;28;20181;-31
2022/04/19 11:08:29;;;;;;;2.60;1.13;;;20.40;18.00;;;;;;5072841;28;20176;-31
2022/04/19 11:10:58;;;;;;;1.50;0.95;;;20.70;18.30;;;;;;5072387;28;20211;-31
2022/04/19 11:13:29;;;;;;;2.75;1.30;;;21.00;17.70;;;;;;5072597;28;20180;-31
2022/04/19 11:16:07;;;;;;;2.28;1.52;;;21.00;17.20;;;;;;5072231;28;20173;-31
2022/04/19 11:18:41;;;;;;;1.90;1.13;;;21.00;17.00;;;;;;5071082;28;20661;-31
2022/04/19 11:21:11;;;;;;;2.53;1.33;;;20.80;17.50;;;;;;5071831;28;20685;-31
2022/04/19 11:23:50;;;;;;;2.25;1.35;;;20.80;17.40;;;;;;5072560;28;20149;-31
2022/04/19 11:26:31;;;;;;;2.92;1.40;;;20.70;17.60;;;;;;5072428;28;20207;-31
2022/04/19 11:29:08;;;;;;;4.55;2.05;;;20.70;17.00;;;;;;5072359;28;20247;-31
2022/04/19 11:31:35;;;;;;;2.10;1.40;;;20.60;17.10;;;;;;5072198;28;20190;-31
2022/04/19 11:34:09;;;;;;;2.05;1.40;;;20.40;17.60;;;;;;5072140;28;20169;-31
2022/04/19 11:36:36;;;;;;;1.90;1.42;;;20.20;18.00;;;;;;5071682;28;20172;-31
2022/04/19 11:39:02;;;;;;;2.80;1.13;;;20.10;17.40;;;;;;5071528;28;20181;-31
2022/04/19 11:46:44;;;;;;;2.10;1.90;;;19.80;18.50;;;;;;5073060;28;20395;-31
2022/04/19 11:47:03;;;;;;;1.98;1.40;;;20.10;18.10;;;;;;5071864;28;20196;-31
2022/04/19 11:49:30;;;;;;;1.87;1.20;;;20.30;18.20;;;;;;5072286;28;20248;-31
2022/04/19 11:52:07;;;;;;;2.03;0.90;;;20.40;17.40;;;;;;5071757;28;20434;-31
2022/04/19 11:54:33;;;;;;;2.10;1.10;;;20.30;17.70;;;;;;5072081;28;20546;-31
2022/04/19 11:57:00;;;;;;;2.13;1.13;;;20.10;17.40;;;;;;5072143;28;20172;-31
2022/04/19 11:59:39;;;;;;;1.77;1.35;;;20.00;17.70;;;;;;5072179;28;20180;-31
2022/04/19 12:02:16;;;;;;;1.75;1.00;;;19.80;18.00;;;;;;5071453;28;20657;-31
2022/04/19 12:04:53;;;;;;;1.90;1.50;;;19.60;18.10;;;;;;5072210;28;20565;-33
2022/04/19 12:07:20;;;;;;;2.03;1.15;;;19.60;19.10;;;;;;5071572;28;20244;-30
2022/04/19 12:09:48;;;;;;;2.20;1.55;;;19.80;19.60;;;;;;5072029;28;20180;-30
2022/04/19 12:12:14;;;;;;;1.92;1.42;;;20.00;18.70;;;;;;5071263;28;20286;-30
2022/04/19 12:14:40;;;;;;;3.23;1.77;;;20.20;18.00;;;;;;5071970;28;20264;-33
2022/04/19 12:17:07;;;;;;;3.30;1.60;;;20.40;19.30;;;;;;5071781;28;20411;-30
2022/04/19 12:19:35;;;;;;;2.00;1.50;;;20.70;17.70;;;;;;5072067;28;20680;-30
2022/04/19 12:22:02;;;;;;;3.47;1.23;;;20.70;17.50;;;;;;5071309;28;20197;-33
2022/04/19 12:24:29;;;;;;;1.90;1.10;;;20.50;17.10;;;;;;5071660;28;20630;-33
2022/04/19 12:27:06;;;;;;;2.05;1.15;;;20.10;16.80;;;;;;5071880;28;20200;-33
2022/04/19 12:29:36;;;;;;;2.40;1.75;;;19.70;17.20;;;;;;5071776;28;20169;-33
2022/04/19 12:32:05;;;;;;;2.60;1.30;;;19.30;17.50;;;;;;5071257;28;20692;-30
2022/04/19 12:34:36;;;;;;;3.40;1.67;;;19.00;18.00;;;;;;5071476;28;20176;-33
2022/04/19 12:37:07;;;;;;;3.20;1.20;;;18.80;18.20;;;;;;5071629;28;20161;-30
2022/04/19 12:39:33;;;;;;;2.90;1.50;;;18.50;18.70;;;;;;5071626;28;20651;-30
2022/04/19 12:42:09;;;;;;;2.20;1.73;;;18.40;19.10;;;;;;5071231;28;20201;-30
2022/04/19 12:44:37;;;;;;;2.33;1.60;;;18.20;19.10;;;;;;5071363;28;20490;-30
2022/04/19 12:47:14;;;;;;;1.70;1.05;;;18.10;19.60;;;;;;5071781;28;20200;-30
2022/04/19 12:49:47;;;;;;;3.05;1.73;;;18.30;20.50;;;;;;5075489;28;20173;-30
2022/04/19 12:52:14;;;;;;;2.72;1.60;;;18.50;20.00;;;;;;5075314;28;20212;-30
2022/04/19 12:54:46;;;;;;;3.25;1.38;;;18.70;19.80;;;;;;5075364;28;20172;-30
2022/04/19 12:57:14;;;;;;;1.75;1.00;;;18.80;19.60;;;;;;5075317;28;20194;-30
2022/04/19 12:59:44;;;;;;;2.83;1.75;;;18.80;19.40;;;;;;5075170;28;20276;-30
2022/04/19 13:02:16;;;;;;;2.33;1.25;;;18.80;19.30;;;;;;5074638;28;20201;-30
2022/04/19 13:04:43;;;;;;;2.40;1.27;;;18.70;19.20;;;;;;5075289;28;20218;-30
2022/04/19 13:12:39;;;;;;;5.22;1.90;;;18.20;18.80;;;;;;5074894;28;20232;-33
2022/04/19 13:15:06;;;;;;;2.60;1.23;;;18.10;19.50;;;;;;5074941;28;20176;-32
2022/04/19 13:17:34;;;;;;;2.22;1.30;;;17.90;19.70;;;;;;5074873;28;20180;-33
2022/04/19 13:20:00;;;;;;;1.95;1.05;;;17.80;19.50;;;;;;5074831;28;20179;-31
2022/04/19 13:22:26;;;;;;;1.88;1.10;;;17.60;19.70;;;;;;5074551;28;20202;-30
2022/04/19 13:24:52;;;;;;;1.60;1.00;;;17.60;19.90;;;;;;5074918;28;20556;-30
2022/04/19 13:27:18;;;;;;;3.03;1.60;;;17.50;19.60;;;;;;5074644;28;20199;-32
2022/04/19 13:29:44;;;;;;;2.55;1.50;;;17.30;19.90;;;;;;5075153;28;20168;-32
2022/04/19 13:32:11;;;;;;;2.33;1.35;;;17.30;20.40;;;;;;5074340;28;20539;-32
2022/04/19 13:34:38;;;;;;;2.05;1.30;;;17.30;20.10;;;;;;5074483;28;20181;-33
2022/04/19 13:37:06;;;;;;;1.95;1.27;;;17.20;20.40;;;;;;5074523;28;20530;-32
2022/04/19 13:39:32;;;;;;;4.78;1.58;;;17.30;20.20;;;;;;5074401;28;20242;-33